sensor_id;sensor_type;location;lat;lon;timestamp;temperature;humidity
48575;DHT22;34352;51.084;3.712;2023-06-10T00:00:51;23.70;1.00
48575;DHT22;34352;51.084;3.712;2023-06-10T00:03:17;23.60;1.00
48575;DHT22;34352;51.084;3.712;2023-06-10T00:05:44;23.60;1.00
48575;DHT22;34352;51.084;3.712;2023-06-10T00:08:10;23.50;1.00
48575;DHT22;34352;51.084;3.712;2023-06-10T00:10:37;23.60;1.00
48575;DHT22;34352;51.084;3.712;2023-06-10T00:13:07;23.60;1.00
48575;DHT22;34352;51.084;3.712;2023-06-10T00:15:37;23.50;1.00
48575;DHT22;34352;51.084;3.712;2023-06-10T00:18:04;23.50;1.00
48575;DHT22;34352;51.084;3.712;2023-06-10T00:20:30;23.50;1.00
48575;DHT22;34352;51.084;3.712;2023-06-10T00:22:57;23.40;1.00
48575;DHT22;34352;51.084;3.712;2023-06-10T00:25:24;23.20;1.00
48575;DHT22;34352;51.084;3.712;2023-06-10T00:27:51;23.30;1.00
48575;DHT22;34352;51.084;3.712;2023-06-10T00:30:17;23.20;1.00
48575;DHT22;34352;51.084;3.712;2023-06-10T00:32:44;23.20;1.00
48575;DHT22;34352;51.084;3.712;2023-06-10T00:35:09;23.10;1.00
48575;DHT22;34352;51.084;3.712;2023-06-10T00:37:35;23.00;1.00
48575;DHT22;34352;51.084;3.712;2023-06-10T00:40:03;23.00;1.00
48575;DHT22;34352;51.084;3.712;2023-06-10T00:42:35;22.90;1.00
48575;DHT22;34352;51.084;3.712;2023-06-10T00:45:00;23.10;1.00
48575;DHT22;34352;51.084;3.712;2023-06-10T00:47:27;23.00;1.00
48575;DHT22;34352;51.084;3.712;2023-06-10T00:49:53;23.00;1.00
48575;DHT22;34352;51.084;3.712;2023-06-10T00:52:22;23.00;1.00
48575;DHT22;34352;51.084;3.712;2023-06-10T00:54:51;23.10;1.00
48575;DHT22;34352;51.084;3.712;2023-06-10T00:57:17;23.10;1.00
48575;DHT22;34352;51.084;3.712;2023-06-10T00:59:48;23.00;1.00
48575;DHT22;34352;51.084;3.712;2023-06-10T01:02:15;23.00;1.00
48575;DHT22;34352;51.084;3.712;2023-06-10T01:04:43;23.10;1.00
48575;DHT22;34352;51.084;3.712;2023-06-10T01:07:27;23.00;1.00
48575;DHT22;34352;51.084;3.712;2023-06-10T01:10:01;22.90;1.00
48575;DHT22;34352;51.084;3.712;2023-06-10T01:12:56;22.90;1.00
48575;DHT22;34352;51.084;3.712;2023-06-10T01:15:25;22.90;1.00
48575;DHT22;34352;51.084;3.712;2023-06-10T01:18:03;22.90;1.00
48575;DHT22;34352;51.084;3.712;2023-06-10T01:20:30;22.70;1.00
48575;DHT22;34352;51.084;3.712;2023-06-10T01:22:59;22.70;1.00
48575;DHT22;34352;51.084;3.712;2023-06-10T01:25:27;22.70;1.00
48575;DHT22;34352;51.084;3.712;2023-06-10T01:30:48;22.60;1.00
48575;DHT22;34352;51.084;3.712;2023-06-10T01:33:18;22.60;1.00
48575;DHT22;34352;51.084;3.712;2023-06-10T01:35:50;22.60;1.00
48575;DHT22;34352;51.084;3.712;2023-06-10T01:38:18;22.50;1.00
48575;DHT22;34352;51.084;3.712;2023-06-10T01:40:46;22.50;1.00
48575;DHT22;34352;51.084;3.712;2023-06-10T01:43:12;22.40;1.00
48575;DHT22;34352;51.084;3.712;2023-06-10T01:45:37;22.40;1.00
48575;DHT22;34352;51.084;3.712;2023-06-10T01:48:03;22.30;1.00
48575;DHT22;34352;51.084;3.712;2023-06-10T01:50:29;22.50;1.00
48575;DHT22;34352;51.084;3.712;2023-06-10T01:52:57;22.30;1.00
48575;DHT22;34352;51.084;3.712;2023-06-10T01:55:23;22.20;1.00
48575;DHT22;34352;51.084;3.712;2023-06-10T01:57:49;22.10;1.00
48575;DHT22;34352;51.084;3.712;2023-06-10T02:00:16;22.20;1.00
48575;DHT22;34352;51.084;3.712;2023-06-10T02:02:41;22.20;1.00
48575;DHT22;34352;51.084;3.712;2023-06-10T02:05:07;22.30;1.00
48575;DHT22;34352;51.084;3.712;2023-06-10T02:07:33;22.20;1.00
48575;DHT22;34352;51.084;3.712;2023-06-10T02:09:58;22.20;1.00
48575;DHT22;34352;51.084;3.712;2023-06-10T02:12:24;22.20;1.00
48575;DHT22;34352;51.084;3.712;2023-06-10T02:14:52;22.10;1.00
48575;DHT22;34352;51.084;3.712;2023-06-10T02:17:17;21.90;1.00
48575;DHT22;34352;51.084;3.712;2023-06-10T02:19:44;21.90;1.00
48575;DHT22;34352;51.084;3.712;2023-06-10T02:22:12;21.90;1.00
48575;DHT22;34352;51.084;3.712;2023-06-10T02:24:40;21.80;1.00
48575;DHT22;34352;51.084;3.712;2023-06-10T02:27:06;21.90;1.00
48575;DHT22;34352;51.084;3.712;2023-06-10T02:29:33;21.90;1.00
48575;DHT22;34352;51.084;3.712;2023-06-10T02:32:01;21.80;1.00
48575;DHT22;34352;51.084;3.712;2023-06-10T02:34:27;21.80;1.00
48575;DHT22;34352;51.084;3.712;2023-06-10T02:36:54;21.90;1.00
48575;DHT22;34352;51.084;3.712;2023-06-10T02:39:20;21.80;1.00
48575;DHT22;34352;51.084;3.712;2023-06-10T02:41:46;21.80;1.00
48575;DHT22;34352;51.084;3.712;2023-06-10T02:44:12;21.80;1.00
48575;DHT22;34352;51.084;3.712;2023-06-10T02:46:38;21.70;1.00
48575;DHT22;34352;51.084;3.712;2023-06-10T02:49:05;21.70;1.00
48575;DHT22;34352;51.084;3.712;2023-06-10T02:51:31;21.60;1.00
48575;DHT22;34352;51.084;3.712;2023-06-10T02:53:58;21.50;1.00
48575;DHT22;34352;51.084;3.712;2023-06-10T02:56:24;21.50;1.00
48575;DHT22;34352;51.084;3.712;2023-06-10T02:58:51;21.50;1.00
48575;DHT22;34352;51.084;3.712;2023-06-10T03:01:17;21.40;1.00
48575;DHT22;34352;51.084;3.712;2023-06-10T03:03:44;21.40;1.00
48575;DHT22;34352;51.084;3.712;2023-06-10T03:06:13;21.40;1.00
48575;DHT22;34352;51.084;3.712;2023-06-10T03:08:39;21.30;1.00
48575;DHT22;34352;51.084;3.712;2023-06-10T03:11:08;21.40;1.00
48575;DHT22;34352;51.084;3.712;2023-06-10T03:13:40;21.30;1.00
48575;DHT22;34352;51.084;3.712;2023-06-10T03:16:06;21.20;1.00
48575;DHT22;34352;51.084;3.712;2023-06-10T03:18:33;21.20;1.00
48575;DHT22;34352;51.084;3.712;2023-06-10T03:20:59;21.20;1.00
48575;DHT22;34352;51.084;3.712;2023-06-10T03:23:25;21.20;1.00
48575;DHT22;34352;51.084;3.712;2023-06-10T03:25:50;21.10;1.00
48575;DHT22;34352;51.084;3.712;2023-06-10T03:28:16;21.10;1.00
48575;DHT22;34352;51.084;3.712;2023-06-10T03:30:42;21.10;1.00
48575;DHT22;34352;51.084;3.712;2023-06-10T03:33:07;21.10;1.00
48575;DHT22;34352;51.084;3.712;2023-06-10T03:35:33;21.20;1.00
48575;DHT22;34352;51.084;3.712;2023-06-10T03:38:00;21.00;1.00
48575;DHT22;34352;51.084;3.712;2023-06-10T03:40:26;21.00;1.00
48575;DHT22;34352;51.084;3.712;2023-06-10T03:42:51;21.00;1.00
48575;DHT22;34352;51.084;3.712;2023-06-10T03:45:18;20.90;1.00
48575;DHT22;34352;51.084;3.712;2023-06-10T03:47:43;20.90;1.00
48575;DHT22;34352;51.084;3.712;2023-06-10T03:50:10;20.90;1.00
48575;DHT22;34352;51.084;3.712;2023-06-10T03:52:38;20.90;1.00
48575;DHT22;34352;51.084;3.712;2023-06-10T03:55:03;20.90;1.00
48575;DHT22;34352;51.084;3.712;2023-06-10T03:57:30;20.90;1.00
48575;DHT22;34352;51.084;3.712;2023-06-10T03:59:56;21.00;1.00
48575;DHT22;34352;51.084;3.712;2023-06-10T04:02:22;20.90;1.00
48575;DHT22;34352;51.084;3.712;2023-06-10T04:04:48;20.90;1.00
48575;DHT22;34352;51.084;3.712;2023-06-10T04:07:13;20.90;1.00
48575;DHT22;34352;51.084;3.712;2023-06-10T04:09:40;20.80;1.00
48575;DHT22;34352;51.084;3.712;2023-06-10T04:12:06;20.80;1.00
48575;DHT22;34352;51.084;3.712;2023-06-10T04:14:34;20.80;1.00
48575;DHT22;34352;51.084;3.712;2023-06-10T04:17:01;20.90;1.00
48575;DHT22;34352;51.084;3.712;2023-06-10T04:19:27;20.90;1.00
48575;DHT22;34352;51.084;3.712;2023-06-10T04:21:54;20.90;1.00
48575;DHT22;34352;51.084;3.712;2023-06-10T04:24:19;20.90;1.00
48575;DHT22;34352;51.084;3.712;2023-06-10T04:26:45;21.00;1.00
48575;DHT22;34352;51.084;3.712;2023-06-10T04:29:11;21.10;1.00
48575;DHT22;34352;51.084;3.712;2023-06-10T04:31:37;21.10;1.00
48575;DHT22;34352;51.084;3.712;2023-06-10T04:34:02;21.10;1.00
48575;DHT22;34352;51.084;3.712;2023-06-10T04:36:28;21.20;1.00
48575;DHT22;34352;51.084;3.712;2023-06-10T04:38:55;21.30;1.00
48575;DHT22;34352;51.084;3.712;2023-06-10T04:41:21;21.30;1.00
48575;DHT22;34352;51.084;3.712;2023-06-10T04:43:48;21.30;1.00
48575;DHT22;34352;51.084;3.712;2023-06-10T04:46:15;21.50;1.00
48575;DHT22;34352;51.084;3.712;2023-06-10T04:48:40;21.40;1.00
48575;DHT22;34352;51.084;3.712;2023-06-10T04:51:07;21.50;1.00
48575;DHT22;34352;51.084;3.712;2023-06-10T04:53:33;21.50;1.00
48575;DHT22;34352;51.084;3.712;2023-06-10T04:55:59;21.50;1.00
48575;DHT22;34352;51.084;3.712;2023-06-10T04:58:25;21.60;1.00
48575;DHT22;34352;51.084;3.712;2023-06-10T05:00:51;21.60;1.00
48575;DHT22;34352;51.084;3.712;2023-06-10T05:03:16;21.60;1.00
48575;DHT22;34352;51.084;3.712;2023-06-10T05:05:42;21.70;1.00
48575;DHT22;34352;51.084;3.712;2023-06-10T05:08:08;21.80;1.00
48575;DHT22;34352;51.084;3.712;2023-06-10T05:10:33;21.90;1.00
48575;DHT22;34352;51.084;3.712;2023-06-10T05:12:59;21.90;1.00
48575;DHT22;34352;51.084;3.712;2023-06-10T05:15:25;21.90;1.00
48575;DHT22;34352;51.084;3.712;2023-06-10T05:17:51;21.90;1.00
48575;DHT22;34352;51.084;3.712;2023-06-10T05:20:17;22.00;1.00
48575;DHT22;34352;51.084;3.712;2023-06-10T05:22:43;22.10;1.00
48575;DHT22;34352;51.084;3.712;2023-06-10T05:25:10;22.10;1.00
48575;DHT22;34352;51.084;3.712;2023-06-10T05:27:35;22.20;1.00
48575;DHT22;34352;51.084;3.712;2023-06-10T05:30:04;22.30;1.00
48575;DHT22;34352;51.084;3.712;2023-06-10T05:32:41;22.20;1.00
48575;DHT22;34352;51.084;3.712;2023-06-10T05:35:07;22.20;1.00
48575;DHT22;34352;51.084;3.712;2023-06-10T05:37:34;22.30;1.00
48575;DHT22;34352;51.084;3.712;2023-06-10T05:40:00;22.40;1.00
48575;DHT22;34352;51.084;3.712;2023-06-10T05:42:26;22.40;1.00
48575;DHT22;34352;51.084;3.712;2023-06-10T05:44:51;22.50;1.00
48575;DHT22;34352;51.084;3.712;2023-06-10T05:47:18;22.70;1.00
48575;DHT22;34352;51.084;3.712;2023-06-10T05:49:44;22.60;1.00
48575;DHT22;34352;51.084;3.712;2023-06-10T05:52:13;22.60;1.00
48575;DHT22;34352;51.084;3.712;2023-06-10T05:54:39;22.70;1.00
48575;DHT22;34352;51.084;3.712;2023-06-10T05:57:06;23.00;1.00
48575;DHT22;34352;51.084;3.712;2023-06-10T05:59:32;23.00;1.00
48575;DHT22;34352;51.084;3.712;2023-06-10T06:01:58;23.10;1.00
48575;DHT22;34352;51.084;3.712;2023-06-10T06:04:24;23.10;1.00
48575;DHT22;34352;51.084;3.712;2023-06-10T06:06:49;23.30;1.00
48575;DHT22;34352;51.084;3.712;2023-06-10T06:09:15;23.30;1.00
48575;DHT22;34352;51.084;3.712;2023-06-10T06:11:41;23.50;1.00
48575;DHT22;34352;51.084;3.712;2023-06-10T06:14:06;23.50;1.00
48575;DHT22;34352;51.084;3.712;2023-06-10T06:16:32;23.70;1.00
48575;DHT22;34352;51.084;3.712;2023-06-10T06:18:58;23.70;1.00
48575;DHT22;34352;51.084;3.712;2023-06-10T06:21:24;23.90;1.00
48575;DHT22;34352;51.084;3.712;2023-06-10T06:23:49;24.30;1.00
48575;DHT22;34352;51.084;3.712;2023-06-10T06:26:15;24.60;1.00
48575;DHT22;34352;51.084;3.712;2023-06-10T06:28:41;24.80;1.00
48575;DHT22;34352;51.084;3.712;2023-06-10T06:31:07;24.90;1.00
48575;DHT22;34352;51.084;3.712;2023-06-10T06:33:33;24.80;1.00
48575;DHT22;34352;51.084;3.712;2023-06-10T06:35:58;25.10;1.00
48575;DHT22;34352;51.084;3.712;2023-06-10T06:38:26;25.50;1.00
48575;DHT22;34352;51.084;3.712;2023-06-10T06:40:51;25.50;1.00
48575;DHT22;34352;51.084;3.712;2023-06-10T06:43:17;25.60;1.00
48575;DHT22;34352;51.084;3.712;2023-06-10T06:45:44;25.60;1.00
48575;DHT22;34352;51.084;3.712;2023-06-10T06:48:10;25.90;1.00
48575;DHT22;34352;51.084;3.712;2023-06-10T06:50:36;26.10;1.00
48575;DHT22;34352;51.084;3.712;2023-06-10T06:53:02;26.40;1.00
48575;DHT22;34352;51.084;3.712;2023-06-10T06:55:28;26.60;1.00
48575;DHT22;34352;51.084;3.712;2023-06-10T06:57:54;26.80;1.00
48575;DHT22;34352;51.084;3.712;2023-06-10T07:00:19;27.20;1.00
48575;DHT22;34352;51.084;3.712;2023-06-10T07:02:45;27.20;1.00
48575;DHT22;34352;51.084;3.712;2023-06-10T07:05:11;27.10;1.00
48575;DHT22;34352;51.084;3.712;2023-06-10T07:07:36;27.10;1.00
48575;DHT22;34352;51.084;3.712;2023-06-10T07:10:02;27.20;1.00
48575;DHT22;34352;51.084;3.712;2023-06-10T07:12:28;27.80;1.00
48575;DHT22;34352;51.084;3.712;2023-06-10T07:14:53;28.20;1.00
48575;DHT22;34352;51.084;3.712;2023-06-10T07:17:19;28.50;1.00
48575;DHT22;34352;51.084;3.712;2023-06-10T07:19:45;29.00;1.00
48575;DHT22;34352;51.084;3.712;2023-06-10T07:22:12;29.30;1.00
48575;DHT22;34352;51.084;3.712;2023-06-10T07:24:38;29.70;1.00
48575;DHT22;34352;51.084;3.712;2023-06-10T07:27:04;29.80;1.00
48575;DHT22;34352;51.084;3.712;2023-06-10T07:29:31;29.80;1.00
48575;DHT22;34352;51.084;3.712;2023-06-10T07:31:56;30.00;1.00
48575;DHT22;34352;51.084;3.712;2023-06-10T07:34:22;30.60;1.00
48575;DHT22;34352;51.084;3.712;2023-06-10T07:36:47;31.20;1.00
48575;DHT22;34352;51.084;3.712;2023-06-10T07:39:13;31.50;1.00
48575;DHT22;34352;51.084;3.712;2023-06-10T07:41:39;31.60;1.00
48575;DHT22;34352;51.084;3.712;2023-06-10T07:44:04;32.00;1.00
48575;DHT22;34352;51.084;3.712;2023-06-10T07:46:30;32.00;1.00
48575;DHT22;34352;51.084;3.712;2023-06-10T07:48:56;31.70;1.00
48575;DHT22;34352;51.084;3.712;2023-06-10T07:51:22;32.10;1.00
48575;DHT22;34352;51.084;3.712;2023-06-10T07:53:47;32.40;1.00
48575;DHT22;34352;51.084;3.712;2023-06-10T07:56:13;32.20;1.00
48575;DHT22;34352;51.084;3.712;2023-06-10T07:58:39;32.10;1.00
48575;DHT22;34352;51.084;3.712;2023-06-10T08:01:04;31.90;1.00
48575;DHT22;34352;51.084;3.712;2023-06-10T08:03:30;32.50;1.00
48575;DHT22;34352;51.084;3.712;2023-06-10T08:05:56;32.60;1.00
48575;DHT22;34352;51.084;3.712;2023-06-10T08:08:21;32.80;1.00
48575;DHT22;34352;51.084;3.712;2023-06-10T08:10:47;33.20;1.00
48575;DHT22;34352;51.084;3.712;2023-06-10T08:13:14;33.40;1.00
48575;DHT22;34352;51.084;3.712;2023-06-10T08:15:40;33.50;1.00
48575;DHT22;34352;51.084;3.712;2023-06-10T08:18:06;33.60;1.00
48575;DHT22;34352;51.084;3.712;2023-06-10T08:20:31;33.60;1.00
48575;DHT22;34352;51.084;3.712;2023-06-10T08:22:57;33.90;1.00
48575;DHT22;34352;51.084;3.712;2023-06-10T08:25:23;33.90;1.00
48575;DHT22;34352;51.084;3.712;2023-06-10T08:27:49;34.80;1.00
48575;DHT22;34352;51.084;3.712;2023-06-10T08:30:16;34.70;1.00
48575;DHT22;34352;51.084;3.712;2023-06-10T08:32:42;34.10;1.00
48575;DHT22;34352;51.084;3.712;2023-06-10T08:35:08;34.50;1.00
48575;DHT22;34352;51.084;3.712;2023-06-10T08:37:33;34.80;1.00
48575;DHT22;34352;51.084;3.712;2023-06-10T08:39:59;34.10;1.00
48575;DHT22;34352;51.084;3.712;2023-06-10T08:42:33;34.30;1.00
48575;DHT22;34352;51.084;3.712;2023-06-10T08:45:01;34.90;1.00
48575;DHT22;34352;51.084;3.712;2023-06-10T08:47:30;35.70;1.00
48575;DHT22;34352;51.084;3.712;2023-06-10T08:50:03;35.70;1.00
48575;DHT22;34352;51.084;3.712;2023-06-10T08:52:35;35.10;1.00
48575;DHT22;34352;51.084;3.712;2023-06-10T08:55:04;35.40;1.00
48575;DHT22;34352;51.084;3.712;2023-06-10T08:57:32;35.50;1.00
48575;DHT22;34352;51.084;3.712;2023-06-10T08:59:58;34.90;1.00
48575;DHT22;34352;51.084;3.712;2023-06-10T09:02:24;34.80;1.00
48575;DHT22;34352;51.084;3.712;2023-06-10T09:04:50;35.10;1.00
48575;DHT22;34352;51.084;3.712;2023-06-10T09:07:16;35.30;1.00
48575;DHT22;34352;51.084;3.712;2023-06-10T09:09:44;35.00;1.00
48575;DHT22;34352;51.084;3.712;2023-06-10T09:12:12;35.70;1.00
48575;DHT22;34352;51.084;3.712;2023-06-10T09:14:39;35.80;1.00
48575;DHT22;34352;51.084;3.712;2023-06-10T09:17:06;35.70;1.00
48575;DHT22;34352;51.084;3.712;2023-06-10T09:19:32;34.40;1.00
48575;DHT22;34352;51.084;3.712;2023-06-10T09:21:58;34.20;1.00
48575;DHT22;34352;51.084;3.712;2023-06-10T09:24:24;34.70;1.00
48575;DHT22;34352;51.084;3.712;2023-06-10T09:26:51;35.10;1.00
48575;DHT22;34352;51.084;3.712;2023-06-10T09:29:27;35.10;1.00
48575;DHT22;34352;51.084;3.712;2023-06-10T09:31:52;35.00;1.00
48575;DHT22;34352;51.084;3.712;2023-06-10T09:34:19;34.80;1.00
48575;DHT22;34352;51.084;3.712;2023-06-10T09:36:46;34.90;1.00
48575;DHT22;34352;51.084;3.712;2023-06-10T09:39:18;35.70;1.00
48575;DHT22;34352;51.084;3.712;2023-06-10T09:41:45;34.90;1.00
48575;DHT22;34352;51.084;3.712;2023-06-10T09:44:13;35.50;1.00
48575;DHT22;34352;51.084;3.712;2023-06-10T09:46:40;35.70;1.00
48575;DHT22;34352;51.084;3.712;2023-06-10T09:49:06;35.50;1.00
48575;DHT22;34352;51.084;3.712;2023-06-10T09:51:32;35.10;1.00
48575;DHT22;34352;51.084;3.712;2023-06-10T09:53:58;35.00;1.00
48575;DHT22;34352;51.084;3.712;2023-06-10T09:56:36;35.80;1.00
48575;DHT22;34352;51.084;3.712;2023-06-10T09:59:03;36.30;1.00
48575;DHT22;34352;51.084;3.712;2023-06-10T10:01:31;36.90;1.00
48575;DHT22;34352;51.084;3.712;2023-06-10T10:03:58;37.10;1.00
48575;DHT22;34352;51.084;3.712;2023-06-10T10:06:25;37.30;1.00
48575;DHT22;34352;51.084;3.712;2023-06-10T10:08:51;37.10;1.00
48575;DHT22;34352;51.084;3.712;2023-06-10T10:11:19;37.20;1.00
48575;DHT22;34352;51.084;3.712;2023-06-10T10:13:48;37.20;1.00
48575;DHT22;34352;51.084;3.712;2023-06-10T10:16:20;36.30;1.00
48575;DHT22;34352;51.084;3.712;2023-06-10T10:18:53;36.40;1.00
48575;DHT22;34352;51.084;3.712;2023-06-10T10:21:23;36.70;1.00
48575;DHT22;34352;51.084;3.712;2023-06-10T10:26:21;36.60;1.00
48575;DHT22;34352;51.084;3.712;2023-06-10T10:28:58;36.40;1.00
48575;DHT22;34352;51.084;3.712;2023-06-10T10:31:27;36.90;1.00
48575;DHT22;34352;51.084;3.712;2023-06-10T10:33:59;37.30;1.00
48575;DHT22;34352;51.084;3.712;2023-06-10T10:36:25;38.00;1.00
48575;DHT22;34352;51.084;3.712;2023-06-10T10:38:52;38.30;1.00
48575;DHT22;34352;51.084;3.712;2023-06-10T10:41:19;38.20;1.00
48575;DHT22;34352;51.084;3.712;2023-06-10T10:43:46;37.50;1.00
48575;DHT22;34352;51.084;3.712;2023-06-10T10:46:16;36.80;1.00
48575;DHT22;34352;51.084;3.712;2023-06-10T10:48:43;37.00;1.00
48575;DHT22;34352;51.084;3.712;2023-06-10T10:51:10;37.10;1.00
48575;DHT22;34352;51.084;3.712;2023-06-10T10:53:39;36.70;1.00
48575;DHT22;34352;51.084;3.712;2023-06-10T10:56:14;36.80;1.00
48575;DHT22;34352;51.084;3.712;2023-06-10T10:58:40;36.90;1.00
48575;DHT22;34352;51.084;3.712;2023-06-10T11:01:13;37.20;1.00
48575;DHT22;34352;51.084;3.712;2023-06-10T11:03:44;37.90;1.00
48575;DHT22;34352;51.084;3.712;2023-06-10T11:06:14;38.50;1.00
48575;DHT22;34352;51.084;3.712;2023-06-10T11:11:26;38.80;1.00
48575;DHT22;34352;51.084;3.712;2023-06-10T11:16:29;38.70;1.00
48575;DHT22;34352;51.084;3.712;2023-06-10T11:18:55;37.90;1.00
48575;DHT22;34352;51.084;3.712;2023-06-10T11:21:23;37.60;1.00
48575;DHT22;34352;51.084;3.712;2023-06-10T11:23:50;38.10;1.00
48575;DHT22;34352;51.084;3.712;2023-06-10T11:31:48;38.30;1.00
48575;DHT22;34352;51.084;3.712;2023-06-10T11:34:12;38.50;1.00
48575;DHT22;34352;51.084;3.712;2023-06-10T11:36:43;38.40;1.00
48575;DHT22;34352;51.084;3.712;2023-06-10T11:39:11;38.30;1.00
48575;DHT22;34352;51.084;3.712;2023-06-10T11:41:37;38.70;1.00
48575;DHT22;34352;51.084;3.712;2023-06-10T11:44:12;39.20;1.00
48575;DHT22;34352;51.084;3.712;2023-06-10T11:46:38;38.80;1.00
48575;DHT22;34352;51.084;3.712;2023-06-10T11:49:05;38.20;1.00
48575;DHT22;34352;51.084;3.712;2023-06-10T11:51:36;37.90;1.00
48575;DHT22;34352;51.084;3.712;2023-06-10T11:54:03;38.20;1.00
48575;DHT22;34352;51.084;3.712;2023-06-10T11:56:30;38.30;1.00
48575;DHT22;34352;51.084;3.712;2023-06-10T11:59:01;38.00;1.00
48575;DHT22;34352;51.084;3.712;2023-06-10T12:01:31;38.30;1.00
48575;DHT22;34352;51.084;3.712;2023-06-10T12:04:07;37.80;1.00
48575;DHT22;34352;51.084;3.712;2023-06-10T12:06:44;37.10;1.00
48575;DHT22;34352;51.084;3.712;2023-06-10T12:09:24;37.30;1.00
48575;DHT22;34352;51.084;3.712;2023-06-10T12:12:04;37.80;1.00
48575;DHT22;34352;51.084;3.712;2023-06-10T12:14:59;38.10;1.00
48575;DHT22;34352;51.084;3.712;2023-06-10T12:20:41;39.10;1.00
48575;DHT22;34352;51.084;3.712;2023-06-10T12:22:48;38.60;1.00
48575;DHT22;34352;51.084;3.712;2023-06-10T12:25:14;38.80;1.00
48575;DHT22;34352;51.084;3.712;2023-06-10T12:27:51;39.10;1.00
48575;DHT22;34352;51.084;3.712;2023-06-10T12:30:23;38.80;1.00
48575;DHT22;34352;51.084;3.712;2023-06-10T12:32:50;38.70;1.00
48575;DHT22;34352;51.084;3.712;2023-06-10T12:35:20;37.70;1.00
48575;DHT22;34352;51.084;3.712;2023-06-10T12:38:03;37.20;1.00
48575;DHT22;34352;51.084;3.712;2023-06-10T12:40:39;37.20;1.00
48575;DHT22;34352;51.084;3.712;2023-06-10T12:43:07;37.00;1.00
48575;DHT22;34352;51.084;3.712;2023-06-10T12:45:35;37.30;1.00
48575;DHT22;34352;51.084;3.712;2023-06-10T12:48:24;37.40;1.00
48575;DHT22;34352;51.084;3.712;2023-06-10T12:50:57;37.60;1.00
48575;DHT22;34352;51.084;3.712;2023-06-10T12:53:24;37.20;1.00
48575;DHT22;34352;51.084;3.712;2023-06-10T12:55:52;36.80;1.00
48575;DHT22;34352;51.084;3.712;2023-06-10T12:58:19;36.80;1.00
48575;DHT22;34352;51.084;3.712;2023-06-10T13:00:45;36.70;1.00
48575;DHT22;34352;51.084;3.712;2023-06-10T13:03:11;36.60;1.00
48575;DHT22;34352;51.084;3.712;2023-06-10T13:05:38;36.80;1.00
48575;DHT22;34352;51.084;3.712;2023-06-10T13:08:07;36.90;1.00
48575;DHT22;34352;51.084;3.712;2023-06-10T13:10:36;37.20;1.00
48575;DHT22;34352;51.084;3.712;2023-06-10T13:13:03;37.30;1.00
48575;DHT22;34352;51.084;3.712;2023-06-10T13:15:32;36.60;1.00
48575;DHT22;34352;51.084;3.712;2023-06-10T13:18:02;36.90;1.00
48575;DHT22;34352;51.084;3.712;2023-06-10T13:20:29;36.90;1.00
48575;DHT22;34352;51.084;3.712;2023-06-10T13:22:55;36.60;1.00
48575;DHT22;34352;51.084;3.712;2023-06-10T13:25:20;36.60;1.00
48575;DHT22;34352;51.084;3.712;2023-06-10T13:27:46;36.80;1.00
48575;DHT22;34352;51.084;3.712;2023-06-10T13:30:12;37.00;1.00
48575;DHT22;34352;51.084;3.712;2023-06-10T13:32:40;36.70;1.00
48575;DHT22;34352;51.084;3.712;2023-06-10T13:35:06;36.40;1.00
48575;DHT22;34352;51.084;3.712;2023-06-10T13:37:33;35.90;1.00
48575;DHT22;34352;51.084;3.712;2023-06-10T13:40:00;35.70;1.00
48575;DHT22;34352;51.084;3.712;2023-06-10T13:42:25;36.00;1.00
48575;DHT22;34352;51.084;3.712;2023-06-10T13:44:52;36.40;1.00
48575;DHT22;34352;51.084;3.712;2023-06-10T13:47:17;36.70;1.00
48575;DHT22;34352;51.084;3.712;2023-06-10T13:49:43;36.80;1.00
48575;DHT22;34352;51.084;3.712;2023-06-10T13:52:09;36.40;1.00
48575;DHT22;34352;51.084;3.712;2023-06-10T13:54:34;36.00;1.00
48575;DHT22;34352;51.084;3.712;2023-06-10T13:57:03;36.00;1.00
48575;DHT22;34352;51.084;3.712;2023-06-10T13:59:29;36.20;1.00
48575;DHT22;34352;51.084;3.712;2023-06-10T14:01:55;36.30;1.00
48575;DHT22;34352;51.084;3.712;2023-06-10T14:04:22;36.30;1.00
48575;DHT22;34352;51.084;3.712;2023-06-10T14:06:48;36.10;1.00
48575;DHT22;34352;51.084;3.712;2023-06-10T14:09:14;36.20;1.00
48575;DHT22;34352;51.084;3.712;2023-06-10T14:11:39;36.00;1.00
48575;DHT22;34352;51.084;3.712;2023-06-10T14:14:05;35.90;1.00
48575;DHT22;34352;51.084;3.712;2023-06-10T14:16:32;35.60;1.00
48575;DHT22;34352;51.084;3.712;2023-06-10T14:18:58;35.10;1.00
48575;DHT22;34352;51.084;3.712;2023-06-10T14:21:24;35.00;1.00
48575;DHT22;34352;51.084;3.712;2023-06-10T14:23:50;34.80;1.00
48575;DHT22;34352;51.084;3.712;2023-06-10T14:26:19;34.60;1.00
48575;DHT22;34352;51.084;3.712;2023-06-10T14:28:47;34.10;1.00
48575;DHT22;34352;51.084;3.712;2023-06-10T14:31:13;33.60;1.00
48575;DHT22;34352;51.084;3.712;2023-06-10T14:33:40;33.60;1.00
48575;DHT22;34352;51.084;3.712;2023-06-10T14:36:07;33.40;1.00
48575;DHT22;34352;51.084;3.712;2023-06-10T14:38:35;33.30;1.00
48575;DHT22;34352;51.084;3.712;2023-06-10T14:41:02;33.20;1.00
48575;DHT22;34352;51.084;3.712;2023-06-10T14:43:28;33.20;1.00
48575;DHT22;34352;51.084;3.712;2023-06-10T14:45:54;32.90;1.00
48575;DHT22;34352;51.084;3.712;2023-06-10T14:48:21;32.90;1.00
48575;DHT22;34352;51.084;3.712;2023-06-10T14:50:49;33.10;1.00
48575;DHT22;34352;51.084;3.712;2023-06-10T14:53:20;33.40;1.00
48575;DHT22;34352;51.084;3.712;2023-06-10T14:55:45;33.40;1.00
48575;DHT22;34352;51.084;3.712;2023-06-10T14:58:15;33.40;1.00
48575;DHT22;34352;51.084;3.712;2023-06-10T15:00:42;33.50;1.00
48575;DHT22;34352;51.084;3.712;2023-06-10T15:03:21;33.70;1.00
48575;DHT22;34352;51.084;3.712;2023-06-10T15:05:47;33.30;1.00
48575;DHT22;34352;51.084;3.712;2023-06-10T15:08:14;33.30;1.00
48575;DHT22;34352;51.084;3.712;2023-06-10T15:10:41;33.20;1.00
48575;DHT22;34352;51.084;3.712;2023-06-10T15:13:08;33.10;1.00
48575;DHT22;34352;51.084;3.712;2023-06-10T15:15:36;32.90;1.00
48575;DHT22;34352;51.084;3.712;2023-06-10T15:18:09;32.60;1.00
48575;DHT22;34352;51.084;3.712;2023-06-10T15:20:35;32.20;1.00
48575;DHT22;34352;51.084;3.712;2023-06-10T15:23:02;32.00;1.00
48575;DHT22;34352;51.084;3.712;2023-06-10T15:25:28;32.00;1.00
48575;DHT22;34352;51.084;3.712;2023-06-10T15:27:56;31.90;1.00
48575;DHT22;34352;51.084;3.712;2023-06-10T15:30:26;31.90;1.00
48575;DHT22;34352;51.084;3.712;2023-06-10T15:32:53;32.10;1.00
48575;DHT22;34352;51.084;3.712;2023-06-10T15:35:19;32.40;1.00
48575;DHT22;34352;51.084;3.712;2023-06-10T15:37:45;32.60;1.00
48575;DHT22;34352;51.084;3.712;2023-06-10T15:40:10;32.60;1.00
48575;DHT22;34352;51.084;3.712;2023-06-10T15:42:37;32.80;1.00
48575;DHT22;34352;51.084;3.712;2023-06-10T15:45:03;32.90;1.00
48575;DHT22;34352;51.084;3.712;2023-06-10T15:47:29;32.80;1.00
48575;DHT22;34352;51.084;3.712;2023-06-10T15:49:56;32.80;1.00
48575;DHT22;34352;51.084;3.712;2023-06-10T15:52:21;32.60;1.00
48575;DHT22;34352;51.084;3.712;2023-06-10T15:54:51;32.40;1.00
48575;DHT22;34352;51.084;3.712;2023-06-10T15:57:21;32.20;1.00
48575;DHT22;34352;51.084;3.712;2023-06-10T16:00:06;32.20;1.00
48575;DHT22;34352;51.084;3.712;2023-06-10T16:02:33;32.10;1.00
48575;DHT22;34352;51.084;3.712;2023-06-10T16:04:59;32.10;1.00